Time;durP1;ratioP1;P1;durP2;ratioP2;P2;SDS_P1;SDS_P2;PMS_P1;PMS_P2;Temp;Humidity;BMP_temperature;BMP_pressure;BME280_temperature;BME280_humidity;BME280_pressure;Samples;Min_cycle;Max_cycle;Signal;HPM_P1;HPM_P2
2022/12/22 03:28:13;;;;;;;;;;;;;;;;;;4826566;29;20054;-75
2022/12/22 03:30:39;;;;;;;155.38;43.42;;;;;;;;;;4818562;29;19928;-75
2022/12/22 03:33:06;;;;;;;166.48;44.30;;;;;;;;;;4836523;29;21947;-75
2022/12/22 03:35:32;;;;;;;145.38;44.90;;;;;;;;;;4822337;29;20061;-75
2022/12/22 03:38:02;;;;;;;162.45;45.10;;;;;;;;;;4838126;29;20113;-75
2022/12/22 03:40:29;;;;;;;147.20;45.40;;;;;;;;;;4807393;29;21482;-75
2022/12/22 03:48:24;;;;;;;167.38;45.47;;;;;;;;;;4825954;29;20054;-76
2022/12/22 03:50:50;;;;;;;171.30;45.58;;;;;;;;;;4796314;29;20046;-76
2022/12/22 03:53:16;;;;;;;168.52;45.97;;;;;;;;;;4813512;29;20129;-75
2022/12/22 03:55:43;;;;;;;161.43;44.63;;;;;;;;;;4815642;29;20076;-75
2022/12/22 03:58:09;;;;;;;157.32;45.53;;;;;;;;;;4816731;29;20149;-76
2022/12/22 04:00:35;;;;;;;154.98;44.50;;;;;;;;;;4815071;29;20045;-75
2022/12/22 04:03:01;;;;;;;165.38;46.65;;;;;;;;;;4829104;29;20121;-76
2022/12/22 04:05:27;;;;;;;159.27;44.83;;;;;;;;;;4812081;29;20459;-76
2022/12/22 04:07:53;;;;;;;160.95;44.78;;;;;;;;;;4814496;29;20049;-76
2022/12/22 04:13:03;;;;;;;180.95;46.60;;;;;;;;;;4822576;29;20053;-76
2022/12/22 04:15:31;;;;;;;161.98;45.42;;;;;;;;;;4827626;29;20406;-76
2022/12/22 04:17:57;;;;;;;162.50;43.90;;;;;;;;;;4810215;29;20048;-76
2022/12/22 04:20:26;;;;;;;148.43;42.92;;;;;;;;;;4810471;29;20110;-75
2022/12/22 04:22:52;;;;;;;166.75;46.17;;;;;;;;;;4825112;29;20038;-74
2022/12/22 04:25:18;;;;;;;177.30;46.67;;;;;;;;;;4815938;29;20410;-75
2022/12/22 04:27:44;;;;;;;166.93;45.63;;;;;;;;;;4814944;29;20057;-75
2022/12/22 04:30:11;;;;;;;168.45;45.30;;;;;;;;;;4825838;29;20962;-75
2022/12/22 04:32:37;;;;;;;175.18;46.97;;;;;;;;;;4810094;29;20078;-75
2022/12/22 04:35:03;;;;;;;181.20;47.60;;;;;;;;;;4812991;29;20140;-75
2022/12/22 04:37:29;;;;;;;171.65;46.35;;;;;;;;;;4808331;29;20693;-75
2022/12/22 04:39:56;;;;;;;178.75;46.45;;;;;;;;;;4808767;29;20747;-75
2022/12/22 04:42:22;;;;;;;178.95;47.70;;;;;;;;;;4804745;29;20145;-75
2022/12/22 04:44:48;;;;;;;191.80;48.83;;;;;;;;;;4803737;29;20560;-75
2022/12/22 04:47:14;;;;;;;185.30;48.33;;;;;;;;;;4823831;29;20049;-76
2022/12/22 04:49:40;;;;;;;189.43;46.78;;;;;;;;;;4821941;29;20064;-75
2022/12/22 04:52:06;;;;;;;160.48;45.60;;;;;;;;;;4813285;29;20140;-76
2022/12/22 04:54:32;;;;;;;173.90;47.70;;;;;;;;;;4813402;29;20079;-77
2022/12/22 04:56:58;;;;;;;156.48;45.10;;;;;;;;;;4792283;29;20510;-76
2022/12/22 04:59:24;;;;;;;163.75;44.05;;;;;;;;;;4813063;29;20122;-76
2022/12/22 05:01:51;;;;;;;166.63;46.28;;;;;;;;;;4810835;29;20106;-76
2022/12/22 05:04:17;;;;;;;155.32;44.85;;;;;;;;;;4812449;29;20046;-77
2022/12/22 05:06:46;;;;;;;156.32;43.47;;;;;;;;;;4816921;29;20053;-76
2022/12/22 05:09:12;;;;;;;139.30;42.50;;;;;;;;;;4829537;29;20137;-77
2022/12/22 05:11:38;;;;;;;140.10;42.10;;;;;;;;;;4827313;29;20293;-76
2022/12/22 05:14:04;;;;;;;144.23;44.03;;;;;;;;;;4814358;29;20423;-74
2022/12/22 05:16:30;;;;;;;129.15;39.97;;;;;;;;;;4819429;29;20551;-75
2022/12/22 05:18:56;;;;;;;136.48;40.78;;;;;;;;;;4843740;29;20117;-75
2022/12/22 05:21:22;;;;;;;131.82;40.08;;;;;;;;;;4834751;29;20030;-76
2022/12/22 05:23:49;;;;;;;104.25;35.85;;;;;;;;;;4825931;29;20049;-75
2022/12/22 05:26:16;;;;;;;103.43;34.55;;;;;;;;;;4797509;29;20085;-76
2022/12/22 05:28:42;;;;;;;90.60;35.38;;;;;;;;;;4827091;29;20060;-76
2022/12/22 05:31:10;;;;;;;87.10;33.38;;;;;;;;;;4810035;29;20050;-76
2022/12/22 05:33:36;;;;;;;91.35;33.47;;;;;;;;;;4824027;29;20132;-77
2022/12/22 05:36:02;;;;;;;87.60;32.17;;;;;;;;;;4806439;29;20108;-76
2022/12/22 05:38:28;;;;;;;72.00;28.63;;;;;;;;;;4814105;29;20046;-77
2022/12/22 05:40:55;;;;;;;67.57;28.55;;;;;;;;;;4801731;29;20521;-77
2022/12/22 05:43:21;;;;;;;71.75;28.23;;;;;;;;;;4789352;29;20064;-76
2022/12/22 05:45:47;;;;;;;63.00;26.40;;;;;;;;;;4783440;29;20050;-77
2022/12/22 05:48:13;;;;;;;65.72;26.13;;;;;;;;;;4795747;29;20136;-76
2022/12/22 05:50:39;;;;;;;63.03;26.25;;;;;;;;;;4796988;29;20590;-77
2022/12/22 05:53:09;;;;;;;62.42;25.30;;;;;;;;;;4794934;29;20277;-77
2022/12/22 05:55:35;;;;;;;59.15;23.80;;;;;;;;;;4782331;29;20213;-76
2022/12/22 05:58:01;;;;;;;54.55;23.67;;;;;;;;;;4781815;29;20046;-76
2022/12/22 06:00:28;;;;;;;59.38;24.60;;;;;;;;;;4793870;29;20093;-76
2022/12/22 06:02:54;;;;;;;67.43;26.33;;;;;;;;;;4796502;29;20041;-76
2022/12/22 06:05:20;;;;;;;64.85;26.92;;;;;;;;;;4798732;29;20072;-77
2022/12/22 06:07:46;;;;;;;71.65;27.67;;;;;;;;;;4793134;29;20046;-76
2022/12/22 06:10:13;;;;;;;70.18;27.67;;;;;;;;;;4800413;29;20055;-76
2022/12/22 06:12:40;;;;;;;76.93;28.05;;;;;;;;;;4810896;29;20506;-76
2022/12/22 06:15:07;;;;;;;73.90;27.88;;;;;;;;;;4809890;29;20082;-75
2022/12/22 06:17:33;;;;;;;67.35;26.60;;;;;;;;;;4802149;29;20050;-76
2022/12/22 06:19:59;;;;;;;66.57;26.80;;;;;;;;;;4799006;29;20050;-75
2022/12/22 06:22:25;;;;;;;69.22;25.83;;;;;;;;;;4818709;29;20187;-75
2022/12/22 06:24:51;;;;;;;71.63;27.05;;;;;;;;;;4802309;29;20050;-76
2022/12/22 06:27:17;;;;;;;74.65;28.35;;;;;;;;;;4799772;29;20061;-71
2022/12/22 06:29:43;;;;;;;68.25;27.00;;;;;;;;;;4797810;29;20046;-70
2022/12/22 06:32:09;;;;;;;71.60;27.20;;;;;;;;;;4793451;29;20676;-70
2022/12/22 06:34:35;;;;;;;69.35;27.33;;;;;;;;;;4801256;29;20051;-71
2022/12/22 06:37:01;;;;;;;73.50;28.42;;;;;;;;;;4801714;29;20097;-70
2022/12/22 06:39:27;;;;;;;76.28;28.92;;;;;;;;;;4792317;29;20045;-70
2022/12/22 06:44:38;;;;;;;;;;;;;;;;;;4810355;29;20057;-70
2022/12/22 06:47:04;;;;;;;70.50;25.73;;;;;;;;;;4815298;29;19935;-70
2022/12/22 06:49:30;;;;;;;84.60;28.40;;;;;;;;;;4811842;29;20464;-70
2022/12/22 06:51:56;;;;;;;72.85;26.73;;;;;;;;;;4818688;29;20476;-70
2022/12/22 06:54:22;;;;;;;83.53;30.10;;;;;;;;;;4818857;29;20050;-71
2022/12/22 06:56:48;;;;;;;74.53;25.75;;;;;;;;;;4815610;29;20199;-71
2022/12/22 06:59:14;;;;;;;79.07;26.48;;;;;;;;;;4813590;29;20060;-70
2022/12/22 07:01:41;;;;;;;86.82;26.27;;;;;;;;;;4811865;29;20042;-70
2022/12/22 07:04:08;;;;;;;75.05;26.38;;;;;;;;;;4814950;29;20064;-71
2022/12/22 07:06:34;;;;;;;87.65;26.83;;;;;;;;;;4817231;29;20049;-70
2022/12/22 07:09:00;;;;;;;83.47;28.23;;;;;;;;;;4821669;29;20395;-70
2022/12/22 07:11:26;;;;;;;89.13;26.38;;;;;;;;;;4808846;29;20067;-74
2022/12/22 07:13:54;;;;;;;84.07;25.92;;;;;;;;;;4800501;29;21156;-75
2022/12/22 07:16:21;;;;;;;81.07;25.38;;;;;;;;;;4818874;29;21602;-71
2022/12/22 07:18:47;;;;;;;79.85;24.85;;;;;;;;;;4827041;29;20046;-70
2022/12/22 07:21:14;;;;;;;75.63;24.23;;;;;;;;;;4794714;29;20053;-70
2022/12/22 07:23:40;;;;;;;73.63;23.58;;;;;;;;;;4823823;29;20391;-70
2022/12/22 07:26:07;;;;;;;73.72;24.67;;;;;;;;;;4815240;29;20049;-70
2022/12/22 07:28:34;;;;;;;72.30;23.52;;;;;;;;;;4826419;29;20054;-70
2022/12/22 07:31:00;;;;;;;75.10;23.63;;;;;;;;;;4819637;29;20075;-75
2022/12/22 07:33:26;;;;;;;78.18;23.10;;;;;;;;;;4821052;29;20037;-76
2022/12/22 07:36:06;;;;;;;82.18;24.58;;;;;;;;;;4810986;29;20655;-76
2022/12/22 07:38:34;;;;;;;94.68;25.73;;;;;;;;;;4817242;29;20050;-75
2022/12/22 07:41:00;;;;;;;156.02;29.40;;;;;;;;;;4819072;29;20045;-75
2022/12/22 07:43:26;;;;;;;152.10;29.08;;;;;;;;;;4800096;29;20050;-75
2022/12/22 07:45:52;;;;;;;125.53;28.60;;;;;;;;;;4799468;29;20057;-75
2022/12/22 07:51:04;;;;;;;238.77;30.52;;;;;;;;;;4828880;29;20571;-75
2022/12/22 07:53:32;;;;;;;304.70;33.30;;;;;;;;;;4804463;29;20177;-75
2022/12/22 07:56:01;;;;;;;361.48;30.55;;;;;;;;;;4804794;29;20106;-75
2022/12/22 07:58:27;;;;;;;364.70;33.25;;;;;;;;;;4806058;29;20077;-74
2022/12/22 08:00:56;;;;;;;227.10;26.95;;;;;;;;;;4823300;29;20053;-76
2022/12/22 08:03:22;;;;;;;372.30;28.85;;;;;;;;;;4807449;29;20768;-76
2022/12/22 08:05:48;;;;;;;407.10;32.00;;;;;;;;;;4805986;29;20049;-76
2022/12/22 08:08:15;;;;;;;402.60;27.40;;;;;;;;;;4809970;29;20651;-76
2022/12/22 08:10:41;;;;;;;322.75;26.55;;;;;;;;;;4800619;29;20095;-76
2022/12/22 08:13:07;;;;;;;237.27;24.70;;;;;;;;;;4806620;29;20072;-75
2022/12/22 08:15:33;;;;;;;196.50;22.05;;;;;;;;;;4812147;29;20084;-75
2022/12/22 08:17:59;;;;;;;316.25;26.58;;;;;;;;;;4800872;29;20458;-74
2022/12/22 08:20:25;;;;;;;271.05;24.25;;;;;;;;;;4791815;29;20075;-75
2022/12/22 08:22:51;;;;;;;193.85;21.90;;;;;;;;;;4811844;29;20121;-75
2022/12/22 08:25:17;;;;;;;137.07;17.02;;;;;;;;;;4818755;29;20052;-75
2022/12/22 08:27:50;;;;;;;213.75;22.52;;;;;;;;;;4834534;29;20088;-76
2022/12/22 08:30:16;;;;;;;257.27;23.75;;;;;;;;;;4809241;29;20488;-70
2022/12/22 08:32:43;;;;;;;299.75;24.83;;;;;;;;;;4813261;29;20050;-75
2022/12/22 08:35:09;;;;;;;298.40;24.63;;;;;;;;;;4828309;29;20056;-75
2022/12/22 08:37:40;;;;;;;352.45;24.88;;;;;;;;;;4826219;29;20133;-74
2022/12/22 08:40:23;;;;;;;314.80;27.63;;;;;;;;;;5057259;28;20990;-70
2022/12/22 08:42:51;;;;;;;296.95;23.27;;;;;;;;;;5032602;28;20754;-69
2022/12/22 08:45:17;;;;;;;378.98;27.63;;;;;;;;;;5067249;28;20143;-70
2022/12/22 08:47:43;;;;;;;130.13;16.25;;;;;;;;;;5034380;28;20140;-70
2022/12/22 08:50:10;;;;;;;313.77;23.95;;;;;;;;;;5040492;28;20052;-70
2022/12/22 08:52:36;;;;;;;194.88;20.60;;;;;;;;;;5033796;28;20049;-69
2022/12/22 08:55:02;;;;;;;313.65;27.10;;;;;;;;;;5014819;28;20044;-69
2022/12/22 08:57:29;;;;;;;328.08;28.73;;;;;;;;;;5034567;28;20041;-69
2022/12/22 08:59:55;;;;;;;230.68;21.02;;;;;;;;;;5032108;28;20139;-70
2022/12/22 09:02:21;;;;;;;215.63;22.63;;;;;;;;;;5036159;28;20036;-69
2022/12/22 09:04:47;;;;;;;377.67;25.65;;;;;;;;;;5035666;28;20044;-69
2022/12/22 09:07:13;;;;;;;204.20;21.92;;;;;;;;;;5037326;28;20113;-70
2022/12/22 09:09:39;;;;;;;165.32;24.10;;;;;;;;;;5056812;28;20050;-70
2022/12/22 09:12:05;;;;;;;110.68;21.70;;;;;;;;;;5035238;28;20537;-70
2022/12/22 09:14:32;;;;;;;149.15;22.27;;;;;;;;;;5038811;28;20040;-70
2022/12/22 09:16:58;;;;;;;211.90;23.65;;;;;;;;;;5032964;28;20041;-69
2022/12/22 09:19:24;;;;;;;90.63;19.92;;;;;;;;;;5044496;28;20516;-70
2022/12/22 09:21:50;;;;;;;104.95;22.13;;;;;;;;;;5038410;28;20177;-70
2022/12/22 09:24:17;;;;;;;61.38;15.63;;;;;;;;;;5035925;28;20049;-70
2022/12/22 09:26:43;;;;;;;63.88;13.90;;;;;;;;;;5066423;27;20604;-69
2022/12/22 09:29:09;;;;;;;53.60;14.65;;;;;;;;;;5036614;28;20056;-71
2022/12/22 09:31:35;;;;;;;59.30;15.40;;;;;;;;;;5069515;28;20562;-69
2022/12/22 09:34:01;;;;;;;59.88;13.73;;;;;;;;;;5057450;28;20492;-69
2022/12/22 09:36:30;;;;;;;54.20;12.98;;;;;;;;;;5068991;28;20126;-69
2022/12/22 09:38:57;;;;;;;61.03;14.85;;;;;;;;;;5034789;28;20495;-70
2022/12/22 09:41:35;;;;;;;52.92;15.10;;;;;;;;;;5016570;28;20076;-70
2022/12/22 09:44:02;;;;;;;50.90;14.70;;;;;;;;;;5032889;28;20099;-70
2022/12/22 09:46:29;;;;;;;35.13;11.73;;;;;;;;;;5035561;28;20044;-69
2022/12/22 09:48:56;;;;;;;51.30;15.82;;;;;;;;;;5038181;28;20660;-70
2022/12/22 09:51:23;;;;;;;60.08;17.30;;;;;;;;;;5025290;28;20041;-69
2022/12/22 09:53:52;;;;;;;55.03;16.70;;;;;;;;;;5021225;28;20044;-69
2022/12/22 09:56:18;;;;;;;43.58;13.30;;;;;;;;;;5021750;28;20617;-70
2022/12/22 09:58:46;;;;;;;54.75;17.80;;;;;;;;;;5007559;28;20049;-70
2022/12/22 10:01:30;;;;;;;49.38;16.83;;;;;;;;;;5021650;28;21727;-71
2022/12/22 10:03:57;;;;;;;56.75;18.92;;;;;;;;;;5021794;28;20054;-71
2022/12/22 10:06:29;;;;;;;50.53;18.38;;;;;;;;;;5010384;28;20048;-70
2022/12/22 10:08:56;;;;;;;45.30;15.23;;;;;;;;;;5025154;28;20119;-71
2022/12/22 10:11:22;;;;;;;51.70;18.90;;;;;;;;;;5023966;28;20045;-70
2022/12/22 10:13:48;;;;;;;47.35;17.80;;;;;;;;;;5023852;28;20037;-71
2022/12/22 10:16:19;;;;;;;53.47;20.85;;;;;;;;;;5022289;28;20044;-70
2022/12/22 10:18:55;;;;;;;54.15;19.20;;;;;;;;;;5021478;28;20505;-77
2022/12/22 10:21:22;;;;;;;48.55;19.75;;;;;;;;;;5031605;28;20060;-78
2022/12/22 10:23:48;;;;;;;42.20;16.73;;;;;;;;;;5027156;28;20051;-78
2022/12/22 10:26:25;;;;;;;42.78;15.45;;;;;;;;;;5024320;28;20047;-74
2022/12/22 10:28:51;;;;;;;37.15;14.70;;;;;;;;;;5011983;28;20056;-73
2022/12/22 10:31:22;;;;;;;38.15;14.75;;;;;;;;;;5035726;28;20384;-73
2022/12/22 10:33:49;;;;;;;25.88;11.52;;;;;;;;;;5032531;28;20041;-73
2022/12/22 10:36:19;;;;;;;24.55;11.23;;;;;;;;;;5027017;28;20047;-74
2022/12/22 10:38:53;;;;;;;24.13;10.80;;;;;;;;;;5023511;28;20053;-77
2022/12/22 10:41:20;;;;;;;23.48;11.57;;;;;;;;;;5023382;28;20055;-78
2022/12/22 10:43:48;;;;;;;17.40;7.40;;;;;;;;;;5023660;28;20065;-78
2022/12/22 10:46:14;;;;;;;21.05;10.02;;;;;;;;;;5025703;28;20482;-79
2022/12/22 10:48:41;;;;;;;16.10;7.30;;;;;;;;;;5026034;28;20156;-79
2022/12/22 10:51:08;;;;;;;21.25;9.43;;;;;;;;;;5026219;28;20044;-79
2022/12/22 10:53:37;;;;;;;13.77;8.32;;;;;;;;;;5023304;28;21625;-78
2022/12/22 10:56:07;;;;;;;11.98;7.25;;;;;;;;;;5023588;28;20053;-78
2022/12/22 10:58:52;;;;;;;19.33;8.43;;;;;;;;;;4998021;28;20045;-78
2022/12/22 11:01:37;;;;;;;15.95;9.90;;;;;;;;;;5027400;28;20087;-78
2022/12/22 11:04:23;;;;;;;18.92;7.80;;;;;;;;;;5011738;28;20144;-79
2022/12/22 11:06:50;;;;;;;14.93;7.72;;;;;;;;;;5027242;28;20075;-74
2022/12/22 11:09:16;;;;;;;22.90;9.20;;;;;;;;;;5024109;28;20048;-73
2022/12/22 11:12:20;;;;;;;17.52;8.70;;;;;;;;;;5007269;28;20059;-74
2022/12/22 11:14:58;;;;;;;15.30;7.78;;;;;;;;;;4991806;28;20171;-73
2022/12/22 11:17:25;;;;;;;19.48;8.25;;;;;;;;;;4994072;28;20125;-74
2022/12/22 11:20:01;;;;;;;13.52;7.50;;;;;;;;;;5006627;28;20088;-73
2022/12/22 11:22:31;;;;;;;14.40;6.93;;;;;;;;;;5010571;28;20781;-73
2022/12/22 11:24:57;;;;;;;18.77;7.13;;;;;;;;;;5023892;28;20050;-73
2022/12/22 11:27:31;;;;;;;26.73;8.13;;;;;;;;;;5023976;28;20469;-73
2022/12/22 11:30:12;;;;;;;16.60;7.60;;;;;;;;;;5024390;28;20065;-74
2022/12/22 11:32:45;;;;;;;12.23;6.25;;;;;;;;;;5022995;28;20037;-74
2022/12/22 11:35:14;;;;;;;16.30;6.35;;;;;;;;;;5033593;28;20074;-74
2022/12/22 11:37:47;;;;;;;10.93;5.70;;;;;;;;;;5024539;28;20126;-74
2022/12/22 11:40:21;;;;;;;11.23;4.90;;;;;;;;;;5006186;28;20465;-74
2022/12/22 11:43:06;;;;;;;16.48;5.97;;;;;;;;;;5022574;28;20053;-73
2022/12/22 11:45:41;;;;;;;11.68;4.50;;;;;;;;;;5024551;28;20127;-73
2022/12/22 11:48:07;;;;;;;10.85;4.20;;;;;;;;;;5029383;28;20045;-74
2022/12/22 11:50:36;;;;;;;8.57;3.60;;;;;;;;;;5023982;28;20034;-73
2022/12/22 11:53:02;;;;;;;12.05;3.83;;;;;;;;;;5024665;28;20032;-72
2022/12/22 11:55:30;;;;;;;12.52;4.32;;;;;;;;;;5026120;28;20033;-72
2022/12/22 11:58:00;;;;;;;12.18;3.88;;;;;;;;;;5010177;28;20060;-72
2022/12/22 12:00:27;;;;;;;12.15;3.88;;;;;;;;;;5033145;28;20055;-73
2022/12/22 12:03:29;;;;;;;9.77;4.55;;;;;;;;;;5019105;28;20045;-72
2022/12/22 12:06:10;;;;;;;14.63;4.07;;;;;;;;;;4984278;28;20132;-73
2022/12/22 12:08:36;;;;;;;13.52;4.72;;;;;;;;;;5019954;28;20052;-73
2022/12/22 12:11:17;;;;;;;17.95;5.28;;;;;;;;;;5023969;28;20042;-73
2022/12/22 12:13:44;;;;;;;13.15;4.38;;;;;;;;;;5023396;28;20048;-73
2022/12/22 12:16:17;;;;;;;14.90;4.43;;;;;;;;;;5023496;28;20053;-72
2022/12/22 12:18:58;;;;;;;11.43;3.45;;;;;;;;;;5024456;28;20049;-74
2022/12/22 12:21:29;;;;;;;12.30;3.42;;;;;;;;;;5011867;28;20124;-73
2022/12/22 12:24:13;;;;;;;21.08;5.80;;;;;;;;;;5032455;28;20047;-73
2022/12/22 12:26:39;;;;;;;;;;;;;;;;;;5029398;28;20040;-77
2022/12/22 12:29:20;;;;;;;10.45;4.85;;;;;;;;;;5031043;28;19921;-75
2022/12/22 12:31:59;;;;;;;13.07;5.20;;;;;;;;;;5035041;28;20052;-76
2022/12/22 12:34:26;;;;;;;13.18;4.57;;;;;;;;;;5032910;28;20033;-74
2022/12/22 12:36:52;;;;;;;13.70;5.05;;;;;;;;;;5042564;28;20084;-76
2022/12/22 12:39:23;;;;;;;12.85;4.18;;;;;;;;;;5038223;28;20505;-77
2022/12/22 12:41:55;;;;;;;11.98;4.30;;;;;;;;;;5029051;28;20048;-77
2022/12/22 12:44:27;;;;;;;15.60;4.75;;;;;;;;;;5027976;28;20047;-75
2022/12/22 12:47:12;;;;;;;7.00;3.53;;;;;;;;;;5028427;28;20041;-77
2022/12/22 12:49:38;;;;;;;9.70;4.15;;;;;;;;;;5026927;28;20049;-76
2022/12/22 12:52:11;;;;;;;14.82;4.68;;;;;;;;;;5027309;28;20045;-76
2022/12/22 12:54:38;;;;;;;11.35;3.97;;;;;;;;;;5028612;28;20045;-77
2022/12/22 12:57:21;;;;;;;14.10;4.13;;;;;;;;;;5027265;28;20033;-76
2022/12/22 12:59:47;;;;;;;11.82;4.15;;;;;;;;;;5027448;28;20045;-76
2022/12/22 13:02:40;;;;;;;11.20;3.40;;;;;;;;;;5027075;28;20124;-76
2022/12/22 13:05:10;;;;;;;17.30;4.25;;;;;;;;;;5026814;28;20180;-76
2022/12/22 13:07:55;;;;;;;19.33;5.05;;;;;;;;;;5029472;28;20044;-77
2022/12/22 13:10:22;;;;;;;9.38;3.50;;;;;;;;;;5012104;28;20068;-77
2022/12/22 13:12:52;;;;;;;13.93;4.32;;;;;;;;;;5030306;28;20413;-76
2022/12/22 13:15:30;;;;;;;12.70;4.00;;;;;;;;;;5029023;28;20044;-77
2022/12/22 13:17:57;;;;;;;9.35;3.83;;;;;;;;;;5025559;28;20041;-77
2022/12/22 13:20:31;;;;;;;11.38;3.58;;;;;;;;;;5011490;28;20400;-77
2022/12/22 13:22:59;;;;;;;10.70;3.53;;;;;;;;;;5026172;28;20045;-77
2022/12/22 13:25:47;;;;;;;15.25;3.58;;;;;;;;;;5030284;28;20037;-77
2022/12/22 13:28:15;;;;;;;11.73;4.00;;;;;;;;;;5033415;28;20088;-77
2022/12/22 13:30:45;;;;;;;8.98;3.15;;;;;;;;;;5033773;28;20058;-78
2022/12/22 13:33:12;;;;;;;15.00;4.15;;;;;;;;;;5034797;28;20042;-77
2022/12/22 13:35:39;;;;;;;14.20;2.97;;;;;;;;;;5031364;28;20096;-78
2022/12/22 13:38:05;;;;;;;14.60;3.08;;;;;;;;;;5028414;28;20071;-76
2022/12/22 13:40:42;;;;;;;15.20;3.50;;;;;;;;;;5030075;28;20045;-76
2022/12/22 13:43:13;;;;;;;13.05;3.15;;;;;;;;;;5020953;28;20070;-75
2022/12/22 13:45:45;;;;;;;9.50;3.10;;;;;;;;;;5041875;28;20033;-76
2022/12/22 13:48:24;;;;;;;16.45;3.67;;;;;;;;;;5042738;28;20041;-76
2022/12/22 13:50:55;;;;;;;16.15;3.67;;;;;;;;;;5034283;28;20186;-76
2022/12/22 13:53:35;;;;;;;10.50;3.10;;;;;;;;;;5030570;28;20071;-76
2022/12/22 13:56:02;;;;;;;17.80;3.10;;;;;;;;;;5027429;28;20041;-76
2022/12/22 13:58:34;;;;;;;12.57;3.25;;;;;;;;;;5034018;28;20047;-77
2022/12/22 14:01:13;;;;;;;11.15;2.95;;;;;;;;;;5015351;28;20105;-75
2022/12/22 14:04:06;;;;;;;14.80;3.38;;;;;;;;;;5031793;28;20391;-76
2022/12/22 14:06:34;;;;;;;10.90;2.85;;;;;;;;;;5030845;28;20081;-76
2022/12/22 14:09:09;;;;;;;11.43;2.75;;;;;;;;;;5034348;28;20075;-76
2022/12/22 14:11:35;;;;;;;13.30;2.83;;;;;;;;;;5030335;28;20945;-76
2022/12/22 14:14:06;;;;;;;16.33;3.63;;;;;;;;;;5029275;28;20499;-76
2022/12/22 14:16:32;;;;;;;16.30;3.40;;;;;;;;;;5027246;28;20099;-77
2022/12/22 14:18:58;;;;;;;11.85;3.42;;;;;;;;;;5029747;28;20128;-77
2022/12/22 14:21:24;;;;;;;11.68;4.55;;;;;;;;;;5030014;28;20045;-76
2022/12/22 14:23:51;;;;;;;18.23;5.43;;;;;;;;;;5014264;28;20045;-77
2022/12/22 14:26:18;;;;;;;14.98;3.80;;;;;;;;;;5037443;28;20052;-75
2022/12/22 14:28:52;;;;;;;15.40;3.67;;;;;;;;;;5029686;28;20049;-76
2022/12/22 14:31:18;;;;;;;9.33;2.87;;;;;;;;;;5031211;28;20049;-75
2022/12/22 14:33:52;;;;;;;10.65;3.58;;;;;;;;;;5033802;28;20128;-77
2022/12/22 14:36:22;;;;;;;12.97;3.43;;;;;;;;;;5032296;28;20059;-75
2022/12/22 14:38:50;;;;;;;9.73;2.85;;;;;;;;;;5029778;28;20069;-77
2022/12/22 14:44:04;;;;;;;15.45;3.78;;;;;;;;;;5036417;28;20049;-76
2022/12/22 14:46:31;;;;;;;16.58;3.30;;;;;;;;;;5045490;28;20052;-76
2022/12/22 14:48:58;;;;;;;11.55;3.97;;;;;;;;;;5050450;28;20067;-76
2022/12/22 14:51:24;;;;;;;14.70;3.85;;;;;;;;;;5048336;28;20045;-76
2022/12/22 14:53:53;;;;;;;16.50;3.90;;;;;;;;;;5027843;28;20045;-76
2022/12/22 14:56:19;;;;;;;21.80;4.18;;;;;;;;;;5030100;28;20042;-76
2022/12/22 14:58:47;;;;;;;13.20;4.10;;;;;;;;;;5032652;28;20052;-76
2022/12/22 15:01:25;;;;;;;14.20;3.88;;;;;;;;;;5028838;28;20048;-77
2022/12/22 15:04:04;;;;;;;15.90;3.70;;;;;;;;;;5032474;28;20389;-76
2022/12/22 15:06:33;;;;;;;16.52;4.15;;;;;;;;;;5016833;28;20045;-77
2022/12/22 15:09:02;;;;;;;13.30;4.68;;;;;;;;;;5030536;28;20049;-77
2022/12/22 15:11:30;;;;;;;16.65;3.88;;;;;;;;;;5026107;28;20622;-77
2022/12/22 15:13:56;;;;;;;11.43;3.70;;;;;;;;;;5028296;28;20151;-76
2022/12/22 15:16:22;;;;;;;18.55;4.35;;;;;;;;;;5031138;28;20092;-75
2022/12/22 15:18:49;;;;;;;22.25;5.38;;;;;;;;;;5030098;28;20186;-76
2022/12/22 15:21:17;;;;;;;14.57;4.55;;;;;;;;;;5029648;28;20055;-75
2022/12/22 15:23:43;;;;;;;22.98;4.90;;;;;;;;;;5029680;28;20110;-75
2022/12/22 15:26:10;;;;;;;18.75;4.38;;;;;;;;;;5030133;28;20128;-76
2022/12/22 15:28:36;;;;;;;7.22;2.72;;;;;;;;;;5031081;28;20088;-76
2022/12/22 15:31:04;;;;;;;14.95;3.50;;;;;;;;;;5033601;28;20050;-75
2022/12/22 15:33:30;;;;;;;12.07;3.03;;;;;;;;;;5036147;28;20092;-77
2022/12/22 15:35:56;;;;;;;14.38;3.65;;;;;;;;;;5038343;28;20048;-76
2022/12/22 15:38:23;;;;;;;10.23;3.05;;;;;;;;;;5029370;28;20072;-76
2022/12/22 15:40:50;;;;;;;18.80;3.05;;;;;;;;;;5030397;28;20041;-76
2022/12/22 15:43:16;;;;;;;11.80;3.15;;;;;;;;;;5028996;28;20037;-77
2022/12/22 15:45:43;;;;;;;10.25;2.90;;;;;;;;;;5028212;28;20045;-76
2022/12/22 15:48:10;;;;;;;11.10;3.47;;;;;;;;;;5031809;28;20088;-76
2022/12/22 15:50:39;;;;;;;11.90;3.00;;;;;;;;;;5032041;28;20049;-76
2022/12/22 15:53:05;;;;;;;8.20;2.50;;;;;;;;;;5027207;28;20048;-76
2022/12/22 15:55:33;;;;;;;12.52;3.08;;;;;;;;;;5009762;28;20045;-76
2022/12/22 15:57:59;;;;;;;9.65;2.50;;;;;;;;;;5029781;28;20604;-77
2022/12/22 16:00:25;;;;;;;13.85;2.60;;;;;;;;;;5029628;28;20037;-77
2022/12/22 16:02:51;;;;;;;10.65;2.55;;;;;;;;;;5030071;28;20054;-77
2022/12/22 16:05:17;;;;;;;11.77;2.85;;;;;;;;;;5029037;28;20056;-76
2022/12/22 16:07:44;;;;;;;15.45;3.00;;;;;;;;;;5028966;28;20126;-75
2022/12/22 16:10:24;;;;;;;13.95;3.00;;;;;;;;;;5029567;28;20060;-76
2022/12/22 16:12:58;;;;;;;8.27;2.42;;;;;;;;;;5012979;28;20550;-76
2022/12/22 16:15:25;;;;;;;11.45;2.75;;;;;;;;;;5029908;28;20041;-76
2022/12/22 16:17:51;;;;;;;10.77;3.00;;;;;;;;;;5028895;28;20493;-75
2022/12/22 16:20:19;;;;;;;13.63;3.20;;;;;;;;;;5044792;28;20041;-77
2022/12/22 16:22:46;;;;;;;10.10;3.10;;;;;;;;;;5027146;28;20040;-76
2022/12/22 16:25:14;;;;;;;7.20;2.97;;;;;;;;;;5035573;28;20049;-76
2022/12/22 16:27:41;;;;;;;14.27;3.55;;;;;;;;;;5028474;28;20037;-76
2022/12/22 16:30:11;;;;;;;7.57;3.80;;;;;;;;;;5026733;28;20422;-76
2022/12/22 16:32:38;;;;;;;13.73;4.03;;;;;;;;;;5028245;28;20516;-76
2022/12/22 16:35:10;;;;;;;17.13;4.28;;;;;;;;;;5029292;28;20063;-77
2022/12/22 16:37:37;;;;;;;12.20;5.22;;;;;;;;;;5025421;28;20103;-76
2022/12/22 16:40:04;;;;;;;9.80;5.25;;;;;;;;;;5022662;28;20106;-77
2022/12/22 16:42:30;;;;;;;15.95;6.25;;;;;;;;;;5028504;28;20091;-77
2022/12/22 16:44:56;;;;;;;12.35;5.28;;;;;;;;;;5028879;28;20072;-77
2022/12/22 16:47:25;;;;;;;24.02;5.80;;;;;;;;;;5026820;28;20099;-76
2022/12/22 16:49:51;;;;;;;18.27;6.20;;;;;;;;;;5028738;28;20041;-77
2022/12/22 16:52:40;;;;;;;10.80;5.72;;;;;;;;;;5026346;28;20041;-76
2022/12/22 16:55:25;;;;;;;14.23;5.47;;;;;;;;;;5026160;28;20138;-76
2022/12/22 16:57:51;;;;;;;11.90;5.93;;;;;;;;;;5028691;28;20055;-76
2022/12/22 17:00:19;;;;;;;10.18;6.40;;;;;;;;;;5037822;28;20063;-76
2022/12/22 17:02:46;;;;;;;13.95;6.50;;;;;;;;;;5052329;28;20041;-75
2022/12/22 17:05:20;;;;;;;18.48;7.05;;;;;;;;;;5054177;28;20041;-75
2022/12/22 17:07:46;;;;;;;17.02;6.93;;;;;;;;;;5036904;28;20052;-76
2022/12/22 17:10:14;;;;;;;11.25;5.75;;;;;;;;;;5028842;28;20043;-76
2022/12/22 17:12:40;;;;;;;18.33;6.07;;;;;;;;;;5031842;28;20376;-76
2022/12/22 17:15:07;;;;;;;15.80;6.53;;;;;;;;;;5029879;28;20102;-76
2022/12/22 17:17:33;;;;;;;15.48;6.60;;;;;;;;;;5034119;28;20187;-77
2022/12/22 17:19:59;;;;;;;10.77;5.82;;;;;;;;;;5031679;28;20458;-76
2022/12/22 17:22:27;;;;;;;12.95;5.30;;;;;;;;;;5037741;28;20041;-75
2022/12/22 17:24:55;;;;;;;20.42;6.95;;;;;;;;;;5037758;28;20582;-77
2022/12/22 17:27:22;;;;;;;17.45;6.18;;;;;;;;;;5034786;28;20568;-76
2022/12/22 17:29:49;;;;;;;12.38;7.20;;;;;;;;;;5029797;28;20061;-77
2022/12/22 17:32:16;;;;;;;17.23;8.57;;;;;;;;;;5034105;28;20037;-77
2022/12/22 17:34:42;;;;;;;13.27;7.85;;;;;;;;;;5031824;28;20054;-77
2022/12/22 17:37:12;;;;;;;11.68;8.57;;;;;;;;;;5045237;28;20124;-76
2022/12/22 17:39:38;;;;;;;16.73;10.50;;;;;;;;;;5031139;28;20127;-77
2022/12/22 17:42:14;;;;;;;20.95;11.27;;;;;;;;;;5031605;28;20051;-76
2022/12/22 17:44:40;;;;;;;17.63;11.32;;;;;;;;;;5031664;28;20033;-77
2022/12/22 17:47:06;;;;;;;15.05;11.82;;;;;;;;;;5033094;28;20131;-76
2022/12/22 17:49:32;;;;;;;18.95;11.07;;;;;;;;;;5030845;28;20133;-77
2022/12/22 17:51:58;;;;;;;18.48;11.30;;;;;;;;;;5033175;28;20041;-76
2022/12/22 17:54:26;;;;;;;23.90;13.02;;;;;;;;;;5030420;28;20077;-75
2022/12/22 17:56:54;;;;;;;19.88;12.48;;;;;;;;;;5032690;28;20041;-76
2022/12/22 17:59:20;;;;;;;29.55;14.85;;;;;;;;;;5029024;28;20152;-76
2022/12/22 18:01:46;;;;;;;21.27;13.07;;;;;;;;;;5029913;28;20103;-76
2022/12/22 18:04:12;;;;;;;21.02;12.85;;;;;;;;;;5032244;28;20041;-75
2022/12/22 18:06:39;;;;;;;26.75;14.23;;;;;;;;;;5032048;28;20056;-75
2022/12/22 18:09:06;;;;;;;25.10;14.13;;;;;;;;;;5030086;28;20091;-76
2022/12/22 18:11:33;;;;;;;22.55;14.55;;;;;;;;;;5030592;28;20041;-76
2022/12/22 18:13:59;;;;;;;25.80;14.90;;;;;;;;;;5029249;28;20489;-76